Leonore, Illinois
Current Conditions -  °F | °C
As of 2:55 AM on Saturday 22 Nov 2014 (Local Time) from KVYS Reporting Station
Haze Haze  
Wind Chill: 28°   Ceiling: 1100
Heat Index: 36°   Visibility: 5mi
Dew Point: 32°   Wind: 12mph
Humidity: 88%   Direction: 190°S
Pressure: 30.09"   Gusts: NA
Location:  41.19°N, 88.98°W
Report Text: KVYS 220855Z AUTO 19010KT 5SM BR OVC011 02/00 A3009 RMK AO2 P0001 60001 T00200002
Loading
Personal Weather Stations






























Interactive Weather Map New forecast layout! Learn more

10-Day Weather Forecast

Advertisements
Track Severe Weather on mobile